createdAt,value
2019-03-24T00:03:30.421Z,4.70
2019-03-24T00:08:22.869Z,4.60
2019-03-24T00:13:15.714Z,4.50
2019-03-24T00:18:08.331Z,4.40
2019-03-24T00:23:01.247Z,4.40
2019-03-24T00:27:53.445Z,4.40
2019-03-24T00:32:46.156Z,4.30
2019-03-24T00:37:39.260Z,4.30
2019-03-24T00:42:31.566Z,4.20
2019-03-24T00:47:24.265Z,4.10
2019-03-24T00:52:16.632Z,4.10
2019-03-24T00:57:09.505Z,4.10
2019-03-24T01:02:01.882Z,3.90
2019-03-24T01:06:54.637Z,3.80
2019-03-24T01:11:47.209Z,3.80
2019-03-24T01:16:39.846Z,3.80
2019-03-24T01:21:32.634Z,3.80
2019-03-24T01:26:25.315Z,3.70
2019-03-24T01:31:17.908Z,3.50
2019-03-24T01:36:10.601Z,3.50
2019-03-24T01:41:03.298Z,3.40
2019-03-24T01:45:58.833Z,3.40
2019-03-24T01:50:49.749Z,3.30
2019-03-24T01:55:42.511Z,3.30
2019-03-24T02:00:35.000Z,3.20
2019-03-24T02:05:27.693Z,3.10
2019-03-24T02:10:20.369Z,3.00
2019-03-24T02:15:13.078Z,3.00
2019-03-24T02:20:06.757Z,3.00
2019-03-24T02:24:59.279Z,2.90
2019-03-24T02:29:51.932Z,2.90
2019-03-24T02:34:44.581Z,2.80
2019-03-24T02:39:37.099Z,2.70
2019-03-24T02:44:29.535Z,2.60
2019-03-24T02:49:22.415Z,2.60
2019-03-24T02:54:14.882Z,2.50
2019-03-24T02:59:07.409Z,2.50
2019-03-24T03:04:00.136Z,2.40
2019-03-24T03:08:52.814Z,2.40
2019-03-24T03:13:45.254Z,2.30
2019-03-24T03:18:38.105Z,2.30
2019-03-24T03:23:31.031Z,2.30
2019-03-24T03:28:23.452Z,2.30
2019-03-24T03:33:15.846Z,2.20
2019-03-24T03:38:08.302Z,2.20
2019-03-24T03:43:00.777Z,2.10
2019-03-24T03:47:53.414Z,2.10
2019-03-24T03:52:46.053Z,2.00
2019-03-24T03:57:38.883Z,2.00
2019-03-24T04:02:31.279Z,1.90
2019-03-24T04:07:24.040Z,1.90
2019-03-24T04:12:16.823Z,1.90
2019-03-24T04:17:09.937Z,1.90
2019-03-24T04:22:02.253Z,1.90
2019-03-24T04:26:54.607Z,1.80
2019-03-24T04:31:47.058Z,1.90
2019-03-24T04:36:39.942Z,1.90
2019-03-24T04:41:32.592Z,1.80
2019-03-24T04:46:24.982Z,1.80
2019-03-24T04:51:17.429Z,1.80
2019-03-24T04:56:10.067Z,1.70
2019-03-24T05:01:02.467Z,1.60
2019-03-24T05:05:55.441Z,1.50
2019-03-24T05:10:48.043Z,1.40
2019-03-24T05:15:40.646Z,1.40
2019-03-24T05:20:33.412Z,1.30
2019-03-24T05:25:25.979Z,1.20
2019-03-24T05:30:18.739Z,1.30
2019-03-24T05:35:11.045Z,1.20
2019-03-24T05:40:04.562Z,1.20
2019-03-24T05:44:57.116Z,1.20
2019-03-24T05:49:50.830Z,1.20
2019-03-24T05:54:43.422Z,1.30
2019-03-24T05:59:35.884Z,1.20
2019-03-24T06:04:29.317Z,1.30
2019-03-24T06:09:21.429Z,1.40
2019-03-24T06:14:14.221Z,1.50
2019-03-24T06:19:06.749Z,1.70
2019-03-24T06:23:59.374Z,1.80
2019-03-24T06:28:51.981Z,1.90
2019-03-24T06:33:48.230Z,2.10
2019-03-24T06:38:40.362Z,2.40
2019-03-24T06:43:32.737Z,2.60
2019-03-24T06:48:25.539Z,2.80
2019-03-24T06:53:17.837Z,3.10
2019-03-24T06:58:10.300Z,3.30
2019-03-24T07:03:03.020Z,3.70
2019-03-24T07:07:55.679Z,4.20
2019-03-24T07:12:48.240Z,4.60
2019-03-24T07:17:40.951Z,4.90
2019-03-24T07:22:33.554Z,5.20
2019-03-24T07:27:26.007Z,5.60
2019-03-24T07:32:18.721Z,6.10
2019-03-24T07:37:11.333Z,6.90
2019-03-24T07:42:05.529Z,8.00
2019-03-24T07:46:57.392Z,8.90
2019-03-24T07:51:49.990Z,9.70
2019-03-24T07:56:42.357Z,10.60
2019-03-24T08:01:34.924Z,11.20
2019-03-24T08:06:27.372Z,11.80
2019-03-24T08:11:19.718Z,12.40
2019-03-24T08:16:12.485Z,13.10
2019-03-24T08:21:05.465Z,13.80
2019-03-24T08:25:58.183Z,14.60
2019-03-24T08:30:50.898Z,15.10
2019-03-24T08:35:43.618Z,15.70
2019-03-24T08:40:36.398Z,16.50
2019-03-24T08:45:30.439Z,17.40
2019-03-24T08:50:22.807Z,17.80
2019-03-24T08:55:15.656Z,18.10
2019-03-24T09:00:08.333Z,18.30
2019-03-24T09:05:00.738Z,18.50
2019-03-24T09:09:53.201Z,18.60
2019-03-24T09:14:45.638Z,18.90
2019-03-24T09:19:38.358Z,19.20
2019-03-24T09:24:30.922Z,19.60
2019-03-24T09:29:23.260Z,19.90
2019-03-24T09:34:15.873Z,20.60
2019-03-24T09:39:08.835Z,21.20
2019-03-24T09:44:01.322Z,21.70
2019-03-24T09:49:02.630Z,22.60
2019-03-24T09:53:48.037Z,23.20
2019-03-24T09:58:40.481Z,24.10
2019-03-24T10:03:32.982Z,24.70
2019-03-24T10:08:25.470Z,24.10
2019-03-24T10:13:18.173Z,22.90
2019-03-24T10:18:10.767Z,22.10
2019-03-24T10:23:03.330Z,22.30
2019-03-24T10:27:55.729Z,21.80
2019-03-24T10:32:48.120Z,21.40
2019-03-24T10:37:43.417Z,20.40
2019-03-24T10:42:37.497Z,19.80
2019-03-24T10:47:29.894Z,19.90
2019-03-24T10:52:22.360Z,20.70
2019-03-24T10:57:17.774Z,22.20
2019-03-24T11:02:15.923Z,23.90
2019-03-24T11:07:28.590Z,24.90
2019-03-24T11:12:23.204Z,25.30
2019-03-24T11:17:15.753Z,25.40
2019-03-24T11:22:08.429Z,25.60
2019-03-24T11:27:00.710Z,26.30
2019-03-24T11:31:53.152Z,26.60
2019-03-24T11:36:46.258Z,26.70
2019-03-24T11:41:38.703Z,27.20
2019-03-24T11:46:31.346Z,27.20
2019-03-24T11:51:24.132Z,27.20
2019-03-24T11:56:16.644Z,26.60
2019-03-24T12:01:09.441Z,26.40
2019-03-24T12:06:01.942Z,25.70
2019-03-24T12:10:54.662Z,24.30
2019-03-24T12:15:47.523Z,22.50
2019-03-24T12:20:40.238Z,21.50
2019-03-24T12:25:32.562Z,21.60
2019-03-24T12:30:25.284Z,21.10
2019-03-24T12:35:17.453Z,20.50
2019-03-24T12:40:10.708Z,19.60
2019-03-24T12:45:03.059Z,19.00
2019-03-24T12:49:55.692Z,18.60
2019-03-24T12:54:48.242Z,19.00
2019-03-24T12:59:40.785Z,19.70
2019-03-24T13:04:33.428Z,21.00
2019-03-24T13:09:25.804Z,22.30
2019-03-24T13:14:18.358Z,23.10
2019-03-24T13:19:10.890Z,22.40
2019-03-24T13:24:03.507Z,23.00
2019-03-24T13:28:56.103Z,23.80
2019-03-24T13:33:48.642Z,23.30
2019-03-24T13:38:41.353Z,23.10
2019-03-24T13:43:34.104Z,23.30
2019-03-24T13:48:26.590Z,23.10
2019-03-24T13:53:19.285Z,21.20
2019-03-24T13:58:12.328Z,19.70
2019-03-24T14:03:05.085Z,18.70
2019-03-24T14:07:57.802Z,18.30
2019-03-24T14:12:50.263Z,18.20
2019-03-24T14:17:43.061Z,19.10
2019-03-24T14:22:35.634Z,20.90
2019-03-24T14:27:28.089Z,22.00
2019-03-24T14:32:20.534Z,21.80
2019-03-24T14:37:13.474Z,21.60
2019-03-24T14:42:05.979Z,20.70
2019-03-24T14:46:58.421Z,20.30
2019-03-24T14:51:51.164Z,19.90
2019-03-24T14:56:43.681Z,19.40
2019-03-24T15:01:36.146Z,18.60
2019-03-24T15:06:28.594Z,18.10
2019-03-24T15:11:21.484Z,18.10
2019-03-24T15:16:14.181Z,18.20
2019-03-24T15:21:06.560Z,18.20
2019-03-24T15:25:59.058Z,17.90
2019-03-24T15:30:52.112Z,17.70
2019-03-24T15:35:44.728Z,17.50
2019-03-24T15:40:37.197Z,17.30
2019-03-24T15:45:29.830Z,17.10
2019-03-24T15:50:22.745Z,16.80
2019-03-24T15:55:15.177Z,16.60
2019-03-24T16:00:10.908Z,16.30
2019-03-24T16:05:03.519Z,16.00
2019-03-24T16:09:56.251Z,15.70
2019-03-24T16:14:48.624Z,15.40
2019-03-24T16:19:41.679Z,15.20
2019-03-24T16:24:34.909Z,15.00
2019-03-24T16:29:28.103Z,14.80
2019-03-24T16:34:21.387Z,14.50
2019-03-24T16:39:14.285Z,14.40
2019-03-24T16:44:06.983Z,14.20
2019-03-24T16:48:59.918Z,14.00
2019-03-24T16:54:12.041Z,14.00
2019-03-24T16:59:04.922Z,13.80
2019-03-24T17:03:57.666Z,13.70
2019-03-24T17:08:50.589Z,13.70
2019-03-24T17:13:43.050Z,13.60
2019-03-24T17:18:35.709Z,13.50
2019-03-24T17:23:28.643Z,13.30
2019-03-24T17:28:21.451Z,13.30
2019-03-24T17:33:14.290Z,13.20
2019-03-24T17:38:07.141Z,13.10
2019-03-24T17:42:59.781Z,13.00
2019-03-24T17:47:52.632Z,12.90
2019-03-24T17:52:45.700Z,12.80
2019-03-24T17:57:38.665Z,12.80
2019-03-24T18:02:31.513Z,12.70
2019-03-24T18:07:24.373Z,12.70
2019-03-24T18:12:17.133Z,12.70
2019-03-24T18:17:09.754Z,12.70
2019-03-24T18:22:11.234Z,12.60
2019-03-24T18:26:58.209Z,12.50
2019-03-24T18:31:50.865Z,12.30
2019-03-24T18:36:43.300Z,12.10
2019-03-24T18:41:36.042Z,11.90
2019-03-24T18:46:28.621Z,11.60
2019-03-24T18:51:21.275Z,11.50
2019-03-24T18:56:13.919Z,11.30
2019-03-24T19:01:06.595Z,11.20
2019-03-24T19:05:58.993Z,10.90
2019-03-24T19:10:51.364Z,10.80
2019-03-24T19:15:43.630Z,10.70
2019-03-24T19:20:36.137Z,10.60
2019-03-24T19:25:28.247Z,10.40
2019-03-24T19:30:23.882Z,10.10
2019-03-24T19:35:16.429Z,10.00
2019-03-24T19:40:15.037Z,9.80
2019-03-24T19:45:07.725Z,9.70
2019-03-24T19:50:00.377Z,9.40
2019-03-24T19:54:52.916Z,9.30
2019-03-24T19:59:45.690Z,9.20
2019-03-24T20:04:38.068Z,9.10
2019-03-24T20:09:30.482Z,9.00
2019-03-24T20:14:24.038Z,8.90
2019-03-24T20:19:16.570Z,8.70
2019-03-24T20:24:09.162Z,8.40
2019-03-24T20:29:01.849Z,8.30
2019-03-24T20:33:54.466Z,8.10
2019-03-24T20:38:47.261Z,8.00
2019-03-24T20:43:39.920Z,7.80
2019-03-24T20:48:32.221Z,7.50
2019-03-24T20:53:24.565Z,7.30
2019-03-24T20:58:16.960Z,7.10
2019-03-24T21:03:09.592Z,7.00
2019-03-24T21:08:02.110Z,6.90
2019-03-24T21:12:54.689Z,6.80
2019-03-24T21:17:47.426Z,6.80
2019-03-24T21:22:39.916Z,6.60
2019-03-24T21:27:32.476Z,6.40
2019-03-24T21:32:25.384Z,6.30
2019-03-24T21:37:18.176Z,6.30
2019-03-24T21:42:11.621Z,6.20
2019-03-24T21:47:23.703Z,6.10
2019-03-24T21:52:15.735Z,6.00
2019-03-24T21:57:08.409Z,5.90
2019-03-24T22:02:00.756Z,5.80
2019-03-24T22:06:53.148Z,5.60
2019-03-24T22:11:45.941Z,5.50
2019-03-24T22:16:38.461Z,5.40
2019-03-24T22:21:31.169Z,5.20
2019-03-24T22:26:23.891Z,5.20
2019-03-24T22:31:16.384Z,5.20
2019-03-24T22:36:09.064Z,5.10
2019-03-24T22:41:01.748Z,5.00
2019-03-24T22:45:54.733Z,4.90
2019-03-24T22:50:47.552Z,4.70
2019-03-24T22:55:40.380Z,4.60
2019-03-24T23:00:46.757Z,4.40
2019-03-24T23:05:39.241Z,4.40
2019-03-24T23:10:32.449Z,4.30
2019-03-24T23:15:24.997Z,4.20
2019-03-24T23:20:17.346Z,4.20
2019-03-24T23:25:10.070Z,4.10
2019-03-24T23:30:02.260Z,4.00
2019-03-24T23:34:54.715Z,3.90
2019-03-24T23:39:47.090Z,3.90
2019-03-24T23:44:39.766Z,3.60
2019-03-24T23:49:32.447Z,3.60
2019-03-24T23:54:27.195Z,3.60
2019-03-24T23:59:18.941Z,3.50
